To NAV CANADA Home Page Login to a new session Search on AWWS site Disclaimer Vers la page française équivalente Tips FAQ What's new on the site To the Forecasts and Observations / NOTAM section To "File a Flight Plan" website Publications and other links Update of the User's profile FIC Telephone Numbers My Weather Data Folder Route Weather Data Regional Weather Data Local Weather Data To the Forecasts and Observations / NOTAM section
Request Generated 04/25/2019 at 08:05:51 UTC . Weather information available at that time is displayed.

METAR/TAF

GERALDTON (GREENSTONE REGIONAL)/ON    

METAR CYGQ 250800Z 24007KT 1/4SM FG VV002 03/03 A2961 RMK FG8 SLP043=
SPECI CYGQ 250720Z 26007KT 1/2SM FG OVC001 04/03 A2960 RMK FG7ST1 SLP040=
METAR CYGQ 250700Z 23006KT 2 1/2SM BR BKN002 OVC004 04/03 A2959 RMK FG2ST5ST1 SLP037=
SPECI CYGQ 250633Z 25006KT 4SM BR BKN004 OVC007 03/03 A2959 RMK ST5SC3 SLP038=
METAR CYGQ 250600Z 24007KT 15SM FEW006 OVC009 03/03 A2960 RMK SF2SC6 SLP039=

TAF CYGQ 250738Z 2508/2520 27008KT 1/2SM FG VV002 TEMPO 2508/2513 2SM
BR SCT002 OVC004
BECMG 2513/2515 P6SM NSW FEW020
RMK NXT FCST BY 251400Z=
Your time UTC time
Weather data provided by Environment Canada and NAV CANADA